BIEH weather

Einholtsmelar Airport
Einholtsmelar, Southern Region, Iceland

Public forecast

Using degrees Celsius for public forecast. Weather courtesy of forecast.io.

Closest aviation weather report (METAR) to Einholtsmelar Airport

Closest report is Reykjavik Airport, 43.5 nm (80.5 km) W. Retrieved 2019/10/21 01:00 UTC (50 seconds ago):

BIRK 210100Z 22013KT 9999 SCT007 BKN018 07/05 Q0994

Closest aviation forecast (TAF) to Einholtsmelar Airport

Closest forecast is Reykjavik Airport, 43.5 nm (80.5 km) W. Retrieved 2019-10-21 03:42 UTC (0 seconds ago):

TAF BIRK 210132Z 2103/2203 28012KT 9999 -SHRA FEW008 SCT015 BKN030 TX06/2103Z TN02/2123Z BECMG 2110/2112 36015KT BECMG 2118/2121 03017G27KT CAVOK